Terminal Aerodrome Forecast
Issued by NWS

Home | Current Version | Previous Version | Text Only | Print | Product List | Glossary On
Versions: 1 2 3 4 5 6 7 8 9 10 11 12
085
FTUS44 KJAN 131132
TAFHKS
TAF
KHKS 131132Z 1312/1412 VRB03KT P6SM SKC
     FM131700 21010G15KT P6SM SKC
     FM140000 22008KT P6SM SKC=

USA.gov is the U.S. government's official web portal to all federal, state and local government web resources and services.